sensor_id;sensor_type;location;lat;lon;timestamp;P1;durP1;ratioP1;P2;durP2;ratioP2
58974;SDS011;44751;52.236;5.178;2022-12-07T00:01:14;8.70;;;3.85;;
58974;SDS011;44751;52.236;5.178;2022-12-07T00:03:49;9.75;;;4.18;;
58974;SDS011;44751;52.236;5.178;2022-12-07T00:06:18;9.27;;;3.92;;
58974;SDS011;44751;52.236;5.178;2022-12-07T00:08:45;9.15;;;3.60;;
58974;SDS011;44751;52.236;5.178;2022-12-07T00:11:17;10.40;;;3.63;;
58974;SDS011;44751;52.236;5.178;2022-12-07T00:13:45;11.52;;;3.85;;
58974;SDS011;44751;52.236;5.178;2022-12-07T00:16:13;12.35;;;4.68;;
58974;SDS011;44751;52.236;5.178;2022-12-07T00:18:41;10.48;;;4.03;;
58974;SDS011;44751;52.236;5.178;2022-12-07T00:23:39;10.85;;;3.65;;
58974;SDS011;44751;52.236;5.178;2022-12-07T00:26:10;6.15;;;3.00;;
58974;SDS011;44751;52.236;5.178;2022-12-07T00:28:46;10.80;;;3.17;;
58974;SDS011;44751;52.236;5.178;2022-12-07T00:31:13;9.00;;;3.28;;
58974;SDS011;44751;52.236;5.178;2022-12-07T00:33:41;10.80;;;3.33;;
58974;SDS011;44751;52.236;5.178;2022-12-07T00:36:09;10.43;;;3.40;;
58974;SDS011;44751;52.236;5.178;2022-12-07T00:38:38;7.55;;;3.10;;
58974;SDS011;44751;52.236;5.178;2022-12-07T00:41:06;6.43;;;2.70;;
58974;SDS011;44751;52.236;5.178;2022-12-07T00:43:35;8.30;;;3.00;;
58974;SDS011;44751;52.236;5.178;2022-12-07T00:46:06;5.95;;;2.60;;
58974;SDS011;44751;52.236;5.178;2022-12-07T00:48:33;7.55;;;2.72;;
58974;SDS011;44751;52.236;5.178;2022-12-07T00:50:59;8.05;;;2.78;;
58974;SDS011;44751;52.236;5.178;2022-12-07T00:53:27;7.65;;;2.70;;
58974;SDS011;44751;52.236;5.178;2022-12-07T00:55:53;6.72;;;2.72;;
58974;SDS011;44751;52.236;5.178;2022-12-07T00:58:22;6.88;;;2.78;;
58974;SDS011;44751;52.236;5.178;2022-12-07T01:00:49;9.05;;;2.92;;
58974;SDS011;44751;52.236;5.178;2022-12-07T01:03:16;9.20;;;2.65;;
58974;SDS011;44751;52.236;5.178;2022-12-07T01:05:52;8.60;;;2.72;;
58974;SDS011;44751;52.236;5.178;2022-12-07T01:08:20;6.85;;;2.70;;
58974;SDS011;44751;52.236;5.178;2022-12-07T01:10:48;7.50;;;2.47;;
58974;SDS011;44751;52.236;5.178;2022-12-07T01:13:15;5.97;;;2.55;;
58974;SDS011;44751;52.236;5.178;2022-12-07T01:15:42;7.32;;;2.50;;
58974;SDS011;44751;52.236;5.178;2022-12-07T01:18:10;8.70;;;2.20;;
58974;SDS011;44751;52.236;5.178;2022-12-07T01:20:37;8.77;;;2.58;;
58974;SDS011;44751;52.236;5.178;2022-12-07T01:23:03;7.45;;;2.78;;
58974;SDS011;44751;52.236;5.178;2022-12-07T01:25:31;5.78;;;2.70;;
58974;SDS011;44751;52.236;5.178;2022-12-07T01:27:57;8.18;;;2.22;;
58974;SDS011;44751;52.236;5.178;2022-12-07T01:30:24;6.57;;;3.05;;
58974;SDS011;44751;52.236;5.178;2022-12-07T01:32:50;5.05;;;2.42;;
58974;SDS011;44751;52.236;5.178;2022-12-07T01:35:16;6.30;;;2.85;;
58974;SDS011;44751;52.236;5.178;2022-12-07T01:37:43;6.78;;;2.13;;
58974;SDS011;44751;52.236;5.178;2022-12-07T01:40:09;7.35;;;2.50;;
58974;SDS011;44751;52.236;5.178;2022-12-07T01:42:36;6.57;;;2.40;;
58974;SDS011;44751;52.236;5.178;2022-12-07T01:47:46;7.28;;;2.28;;
58974;SDS011;44751;52.236;5.178;2022-12-07T01:50:16;8.90;;;2.53;;
58974;SDS011;44751;52.236;5.178;2022-12-07T01:52:43;6.75;;;2.30;;
58974;SDS011;44751;52.236;5.178;2022-12-07T01:55:12;7.53;;;1.85;;
58974;SDS011;44751;52.236;5.178;2022-12-07T01:57:41;6.88;;;1.60;;
58974;SDS011;44751;52.236;5.178;2022-12-07T02:00:12;5.35;;;2.00;;
58974;SDS011;44751;52.236;5.178;2022-12-07T02:02:47;8.95;;;1.75;;
58974;SDS011;44751;52.236;5.178;2022-12-07T02:05:17;9.32;;;1.80;;
58974;SDS011;44751;52.236;5.178;2022-12-07T02:07:44;6.95;;;1.60;;
58974;SDS011;44751;52.236;5.178;2022-12-07T02:12:52;7.13;;;1.85;;
58974;SDS011;44751;52.236;5.178;2022-12-07T02:15:26;7.88;;;1.80;;
58974;SDS011;44751;52.236;5.178;2022-12-07T02:18:06;5.82;;;1.70;;
58974;SDS011;44751;52.236;5.178;2022-12-07T02:29:45;5.85;;;2.00;;
58974;SDS011;44751;52.236;5.178;2022-12-07T02:32:34;6.40;;;2.38;;
58974;SDS011;44751;52.236;5.178;2022-12-07T02:38:00;7.18;;;2.40;;
58974;SDS011;44751;52.236;5.178;2022-12-07T02:40:43;7.13;;;3.28;;
58974;SDS011;44751;52.236;5.178;2022-12-07T02:43:17;11.68;;;4.78;;
58974;SDS011;44751;52.236;5.178;2022-12-07T02:45:48;10.50;;;3.95;;
58974;SDS011;44751;52.236;5.178;2022-12-07T02:48:17;8.15;;;2.47;;
58974;SDS011;44751;52.236;5.178;2022-12-07T02:50:49;4.72;;;2.30;;
58974;SDS011;44751;52.236;5.178;2022-12-07T02:55:55;6.18;;;1.95;;
58974;SDS011;44751;52.236;5.178;2022-12-07T02:58:41;7.38;;;2.92;;
58974;SDS011;44751;52.236;5.178;2022-12-07T03:01:36;9.77;;;3.47;;
58974;SDS011;44751;52.236;5.178;2022-12-07T03:06:52;10.93;;;2.60;;
58974;SDS011;44751;52.236;5.178;2022-12-07T03:09:29;5.93;;;2.13;;
58974;SDS011;44751;52.236;5.178;2022-12-07T03:12:12;9.68;;;2.45;;
58974;SDS011;44751;52.236;5.178;2022-12-07T03:14:48;5.25;;;2.40;;
58974;SDS011;44751;52.236;5.178;2022-12-07T03:17:24;5.95;;;2.28;;
58974;SDS011;44751;52.236;5.178;2022-12-07T03:19:54;6.30;;;2.08;;
58974;SDS011;44751;52.236;5.178;2022-12-07T03:22:24;4.45;;;1.73;;
58974;SDS011;44751;52.236;5.178;2022-12-07T03:24:58;5.85;;;1.75;;
58974;SDS011;44751;52.236;5.178;2022-12-07T03:30:14;6.20;;;1.70;;
58974;SDS011;44751;52.236;5.178;2022-12-07T03:32:45;3.70;;;1.50;;
58974;SDS011;44751;52.236;5.178;2022-12-07T03:35:35;3.58;;;1.80;;
58974;SDS011;44751;52.236;5.178;2022-12-07T03:38:12;7.13;;;1.63;;
58974;SDS011;44751;52.236;5.178;2022-12-07T03:43:17;6.40;;;1.85;;
58974;SDS011;44751;52.236;5.178;2022-12-07T03:45:47;6.07;;;1.38;;
58974;SDS011;44751;52.236;5.178;2022-12-07T03:48:20;8.38;;;2.00;;
58974;SDS011;44751;52.236;5.178;2022-12-07T03:51:02;4.93;;;1.38;;
58974;SDS011;44751;52.236;5.178;2022-12-07T03:53:48;5.50;;;1.30;;
58974;SDS011;44751;52.236;5.178;2022-12-07T03:56:21;5.15;;;1.50;;
58974;SDS011;44751;52.236;5.178;2022-12-07T03:58:48;2.60;;;1.17;;
58974;SDS011;44751;52.236;5.178;2022-12-07T04:01:17;6.25;;;1.38;;
58974;SDS011;44751;52.236;5.178;2022-12-07T04:03:43;6.10;;;1.40;;
58974;SDS011;44751;52.236;5.178;2022-12-07T04:06:10;4.18;;;1.50;;
58974;SDS011;44751;52.236;5.178;2022-12-07T04:08:36;7.43;;;1.58;;
58974;SDS011;44751;52.236;5.178;2022-12-07T04:11:05;5.18;;;1.80;;
58974;SDS011;44751;52.236;5.178;2022-12-07T04:13:32;7.30;;;2.00;;
58974;SDS011;44751;52.236;5.178;2022-12-07T04:16:19;5.55;;;1.48;;
58974;SDS011;44751;52.236;5.178;2022-12-07T04:18:45;4.38;;;1.40;;
58974;SDS011;44751;52.236;5.178;2022-12-07T04:21:12;10.15;;;1.77;;
58974;SDS011;44751;52.236;5.178;2022-12-07T04:23:38;6.20;;;1.20;;
58974;SDS011;44751;52.236;5.178;2022-12-07T04:26:04;6.38;;;1.50;;
58974;SDS011;44751;52.236;5.178;2022-12-07T04:28:31;7.38;;;1.40;;
58974;SDS011;44751;52.236;5.178;2022-12-07T04:30:57;11.05;;;1.60;;
58974;SDS011;44751;52.236;5.178;2022-12-07T04:33:24;9.25;;;1.70;;
58974;SDS011;44751;52.236;5.178;2022-12-07T04:35:50;4.18;;;1.10;;
58974;SDS011;44751;52.236;5.178;2022-12-07T04:38:16;5.22;;;1.13;;
58974;SDS011;44751;52.236;5.178;2022-12-07T04:40:43;5.65;;;1.15;;
58974;SDS011;44751;52.236;5.178;2022-12-07T04:43:09;4.18;;;1.45;;
58974;SDS011;44751;52.236;5.178;2022-12-07T04:45:35;4.07;;;1.13;;
58974;SDS011;44751;52.236;5.178;2022-12-07T04:48:03;5.97;;;1.30;;
58974;SDS011;44751;52.236;5.178;2022-12-07T04:50:29;4.53;;;0.85;;
58974;SDS011;44751;52.236;5.178;2022-12-07T04:52:56;8.52;;;1.10;;
58974;SDS011;44751;52.236;5.178;2022-12-07T04:55:22;1.95;;;1.00;;
58974;SDS011;44751;52.236;5.178;2022-12-07T04:57:49;7.72;;;1.38;;
58974;SDS011;44751;52.236;5.178;2022-12-07T05:00:15;5.35;;;1.08;;
58974;SDS011;44751;52.236;5.178;2022-12-07T05:02:44;6.40;;;0.90;;
58974;SDS011;44751;52.236;5.178;2022-12-07T05:05:11;7.22;;;1.05;;
58974;SDS011;44751;52.236;5.178;2022-12-07T05:07:37;2.72;;;1.35;;
58974;SDS011;44751;52.236;5.178;2022-12-07T05:10:04;3.20;;;1.02;;
58974;SDS011;44751;52.236;5.178;2022-12-07T05:12:31;6.65;;;1.20;;
58974;SDS011;44751;52.236;5.178;2022-12-07T05:14:57;5.50;;;1.40;;
58974;SDS011;44751;52.236;5.178;2022-12-07T05:17:24;9.90;;;1.50;;
58974;SDS011;44751;52.236;5.178;2022-12-07T05:19:50;5.05;;;1.30;;
58974;SDS011;44751;52.236;5.178;2022-12-07T05:22:16;7.25;;;1.20;;
58974;SDS011;44751;52.236;5.178;2022-12-07T05:24:43;6.50;;;1.30;;
58974;SDS011;44751;52.236;5.178;2022-12-07T05:27:09;8.10;;;1.63;;
58974;SDS011;44751;52.236;5.178;2022-12-07T05:29:38;6.75;;;1.33;;
58974;SDS011;44751;52.236;5.178;2022-12-07T05:32:04;8.13;;;1.30;;
58974;SDS011;44751;52.236;5.178;2022-12-07T05:34:31;7.00;;;1.20;;
58974;SDS011;44751;52.236;5.178;2022-12-07T05:36:57;11.57;;;4.55;;
58974;SDS011;44751;52.236;5.178;2022-12-07T05:39:23;11.38;;;3.55;;
58974;SDS011;44751;52.236;5.178;2022-12-07T05:41:50;8.32;;;2.88;;
58974;SDS011;44751;52.236;5.178;2022-12-07T05:44:34;8.15;;;3.00;;
58974;SDS011;44751;52.236;5.178;2022-12-07T05:47:00;11.55;;;3.00;;
58974;SDS011;44751;52.236;5.178;2022-12-07T05:49:26;9.10;;;2.70;;
58974;SDS011;44751;52.236;5.178;2022-12-07T05:51:53;5.78;;;1.63;;
58974;SDS011;44751;52.236;5.178;2022-12-07T05:54:19;5.43;;;1.70;;
58974;SDS011;44751;52.236;5.178;2022-12-07T05:56:46;9.23;;;1.95;;
58974;SDS011;44751;52.236;5.178;2022-12-07T05:59:12;8.98;;;1.52;;
58974;SDS011;44751;52.236;5.178;2022-12-07T06:01:53;6.72;;;1.98;;
58974;SDS011;44751;52.236;5.178;2022-12-07T06:04:22;7.95;;;1.80;;
58974;SDS011;44751;52.236;5.178;2022-12-07T06:06:50;6.10;;;1.42;;
58974;SDS011;44751;52.236;5.178;2022-12-07T06:09:17;7.57;;;1.80;;
58974;SDS011;44751;52.236;5.178;2022-12-07T06:11:44;5.20;;;1.63;;
58974;SDS011;44751;52.236;5.178;2022-12-07T06:14:29;8.65;;;2.38;;
58974;SDS011;44751;52.236;5.178;2022-12-07T06:16:55;6.43;;;1.50;;
58974;SDS011;44751;52.236;5.178;2022-12-07T06:19:21;8.10;;;1.70;;
58974;SDS011;44751;52.236;5.178;2022-12-07T06:21:50;6.13;;;1.38;;
58974;SDS011;44751;52.236;5.178;2022-12-07T06:24:16;5.63;;;1.30;;
58974;SDS011;44751;52.236;5.178;2022-12-07T06:26:43;8.45;;;1.40;;
58974;SDS011;44751;52.236;5.178;2022-12-07T06:29:10;7.82;;;1.38;;
58974;SDS011;44751;52.236;5.178;2022-12-07T06:31:39;9.85;;;2.05;;
58974;SDS011;44751;52.236;5.178;2022-12-07T06:34:07;7.15;;;1.55;;
58974;SDS011;44751;52.236;5.178;2022-12-07T06:36:36;6.43;;;1.63;;
58974;SDS011;44751;52.236;5.178;2022-12-07T06:39:03;4.47;;;1.70;;
58974;SDS011;44751;52.236;5.178;2022-12-07T06:41:30;6.22;;;2.20;;
58974;SDS011;44751;52.236;5.178;2022-12-07T06:43:57;5.78;;;1.55;;
58974;SDS011;44751;52.236;5.178;2022-12-07T06:46:23;9.05;;;2.20;;
58974;SDS011;44751;52.236;5.178;2022-12-07T06:48:50;6.30;;;1.75;;
58974;SDS011;44751;52.236;5.178;2022-12-07T06:51:16;8.88;;;1.67;;
58974;SDS011;44751;52.236;5.178;2022-12-07T06:53:43;6.95;;;1.67;;
58974;SDS011;44751;52.236;5.178;2022-12-07T06:56:09;11.68;;;1.60;;
58974;SDS011;44751;52.236;5.178;2022-12-07T06:58:36;12.25;;;2.60;;
58974;SDS011;44751;52.236;5.178;2022-12-07T07:01:12;8.73;;;2.08;;
58974;SDS011;44751;52.236;5.178;2022-12-07T07:03:40;6.93;;;2.10;;
58974;SDS011;44751;52.236;5.178;2022-12-07T07:06:07;9.95;;;3.08;;
58974;SDS011;44751;52.236;5.178;2022-12-07T07:08:34;6.47;;;3.58;;
58974;SDS011;44751;52.236;5.178;2022-12-07T07:11:06;11.73;;;4.35;;
58974;SDS011;44751;52.236;5.178;2022-12-07T07:13:33;9.48;;;3.58;;
58974;SDS011;44751;52.236;5.178;2022-12-07T07:16:00;9.63;;;2.88;;
58974;SDS011;44751;52.236;5.178;2022-12-07T07:18:27;10.75;;;2.78;;
58974;SDS011;44751;52.236;5.178;2022-12-07T07:20:54;7.95;;;3.20;;
58974;SDS011;44751;52.236;5.178;2022-12-07T07:23:23;9.98;;;3.65;;
58974;SDS011;44751;52.236;5.178;2022-12-07T07:25:50;9.90;;;3.90;;
58974;SDS011;44751;52.236;5.178;2022-12-07T07:28:16;9.77;;;3.63;;
58974;SDS011;44751;52.236;5.178;2022-12-07T07:30:43;10.98;;;4.22;;
58974;SDS011;44751;52.236;5.178;2022-12-07T07:33:10;10.60;;;3.60;;
58974;SDS011;44751;52.236;5.178;2022-12-07T07:35:37;10.82;;;4.07;;
58974;SDS011;44751;52.236;5.178;2022-12-07T07:38:04;22.80;;;6.80;;
58974;SDS011;44751;52.236;5.178;2022-12-07T07:40:31;21.52;;;8.85;;
58974;SDS011;44751;52.236;5.178;2022-12-07T07:42:58;23.52;;;9.05;;
58974;SDS011;44751;52.236;5.178;2022-12-07T07:45:25;18.80;;;7.95;;
58974;SDS011;44751;52.236;5.178;2022-12-07T07:47:52;37.85;;;12.10;;
58974;SDS011;44751;52.236;5.178;2022-12-07T07:50:19;59.03;;;12.70;;
58974;SDS011;44751;52.236;5.178;2022-12-07T07:52:46;61.65;;;13.45;;
58974;SDS011;44751;52.236;5.178;2022-12-07T07:55:13;25.02;;;8.10;;
58974;SDS011;44751;52.236;5.178;2022-12-07T07:57:40;12.88;;;4.20;;
58974;SDS011;44751;52.236;5.178;2022-12-07T08:00:08;8.80;;;2.30;;
58974;SDS011;44751;52.236;5.178;2022-12-07T08:02:39;4.00;;;1.80;;
58974;SDS011;44751;52.236;5.178;2022-12-07T08:05:07;6.13;;;2.00;;
58974;SDS011;44751;52.236;5.178;2022-12-07T08:07:34;5.82;;;1.70;;
58974;SDS011;44751;52.236;5.178;2022-12-07T08:10:01;5.68;;;1.75;;
58974;SDS011;44751;52.236;5.178;2022-12-07T08:12:27;5.72;;;1.58;;
58974;SDS011;44751;52.236;5.178;2022-12-07T08:14:56;7.40;;;1.83;;
58974;SDS011;44751;52.236;5.178;2022-12-07T08:17:22;8.35;;;2.10;;
58974;SDS011;44751;52.236;5.178;2022-12-07T08:19:48;9.70;;;2.22;;
58974;SDS011;44751;52.236;5.178;2022-12-07T08:22:15;6.40;;;2.17;;
58974;SDS011;44751;52.236;5.178;2022-12-07T08:24:41;4.85;;;1.73;;
58974;SDS011;44751;52.236;5.178;2022-12-07T08:27:08;7.57;;;2.42;;
58974;SDS011;44751;52.236;5.178;2022-12-07T08:29:36;6.43;;;1.75;;
58974;SDS011;44751;52.236;5.178;2022-12-07T08:32:02;7.85;;;2.15;;
58974;SDS011;44751;52.236;5.178;2022-12-07T08:34:29;6.28;;;2.20;;
58974;SDS011;44751;52.236;5.178;2022-12-07T08:36:55;7.05;;;1.88;;
58974;SDS011;44751;52.236;5.178;2022-12-07T08:39:22;6.13;;;1.90;;
58974;SDS011;44751;52.236;5.178;2022-12-07T08:41:48;4.93;;;1.88;;
58974;SDS011;44751;52.236;5.178;2022-12-07T08:44:15;7.13;;;1.95;;
58974;SDS011;44751;52.236;5.178;2022-12-07T08:46:48;4.50;;;1.70;;
58974;SDS011;44751;52.236;5.178;2022-12-07T08:49:20;8.32;;;2.03;;
58974;SDS011;44751;52.236;5.178;2022-12-07T08:51:52;6.13;;;1.60;;
58974;SDS011;44751;52.236;5.178;2022-12-07T08:54:20;3.67;;;1.30;;
58974;SDS011;44751;52.236;5.178;2022-12-07T08:56:47;7.63;;;1.75;;
58974;SDS011;44751;52.236;5.178;2022-12-07T08:59:16;6.95;;;1.38;;
58974;SDS011;44751;52.236;5.178;2022-12-07T09:01:44;7.25;;;1.40;;
58974;SDS011;44751;52.236;5.178;2022-12-07T09:04:11;6.35;;;1.73;;
58974;SDS011;44751;52.236;5.178;2022-12-07T09:06:38;6.22;;;1.30;;
58974;SDS011;44751;52.236;5.178;2022-12-07T09:09:04;6.55;;;1.42;;
58974;SDS011;44751;52.236;5.178;2022-12-07T09:11:32;3.92;;;1.30;;
58974;SDS011;44751;52.236;5.178;2022-12-07T09:14:01;5.47;;;1.38;;
58974;SDS011;44751;52.236;5.178;2022-12-07T09:16:29;3.95;;;1.50;;
58974;SDS011;44751;52.236;5.178;2022-12-07T09:18:56;7.25;;;1.70;;
58974;SDS011;44751;52.236;5.178;2022-12-07T09:21:22;5.60;;;1.60;;
58974;SDS011;44751;52.236;5.178;2022-12-07T09:23:49;6.45;;;1.75;;
58974;SDS011;44751;52.236;5.178;2022-12-07T09:26:17;11.27;;;1.90;;
58974;SDS011;44751;52.236;5.178;2022-12-07T09:28:48;5.68;;;1.58;;
58974;SDS011;44751;52.236;5.178;2022-12-07T09:31:14;4.00;;;1.27;;
58974;SDS011;44751;52.236;5.178;2022-12-07T09:33:41;6.28;;;1.52;;
58974;SDS011;44751;52.236;5.178;2022-12-07T09:36:07;5.60;;;1.50;;
58974;SDS011;44751;52.236;5.178;2022-12-07T09:38:34;8.55;;;1.52;;
58974;SDS011;44751;52.236;5.178;2022-12-07T09:41:05;4.20;;;1.50;;
58974;SDS011;44751;52.236;5.178;2022-12-07T09:43:33;5.90;;;1.65;;
58974;SDS011;44751;52.236;5.178;2022-12-07T09:46:02;7.60;;;1.90;;
58974;SDS011;44751;52.236;5.178;2022-12-07T09:48:30;6.53;;;2.15;;
58974;SDS011;44751;52.236;5.178;2022-12-07T09:51:02;6.90;;;1.83;;
58974;SDS011;44751;52.236;5.178;2022-12-07T09:53:37;4.70;;;1.60;;
58974;SDS011;44751;52.236;5.178;2022-12-07T09:56:04;6.80;;;2.70;;
58974;SDS011;44751;52.236;5.178;2022-12-07T09:58:32;5.45;;;1.75;;
58974;SDS011;44751;52.236;5.178;2022-12-07T10:01:09;5.18;;;1.70;;
58974;SDS011;44751;52.236;5.178;2022-12-07T10:03:40;5.40;;;1.33;;
58974;SDS011;44751;52.236;5.178;2022-12-07T10:06:11;9.48;;;2.00;;
58974;SDS011;44751;52.236;5.178;2022-12-07T10:08:38;9.75;;;3.10;;
58974;SDS011;44751;52.236;5.178;2022-12-07T10:11:06;9.63;;;4.65;;
58974;SDS011;44751;52.236;5.178;2022-12-07T10:13:45;7.95;;;3.65;;
58974;SDS011;44751;52.236;5.178;2022-12-07T10:24:34;8.97;;;2.00;;
58974;SDS011;44751;52.236;5.178;2022-12-07T10:27:04;5.57;;;1.52;;
58974;SDS011;44751;52.236;5.178;2022-12-07T10:29:31;5.35;;;1.42;;
58974;SDS011;44751;52.236;5.178;2022-12-07T10:32:03;8.25;;;1.83;;
58974;SDS011;44751;52.236;5.178;2022-12-07T10:34:32;5.70;;;1.55;;
58974;SDS011;44751;52.236;5.178;2022-12-07T10:39:52;4.75;;;1.40;;
58974;SDS011;44751;52.236;5.178;2022-12-07T10:44:47;5.57;;;1.30;;
58974;SDS011;44751;52.236;5.178;2022-12-07T10:47:30;5.50;;;1.80;;
58974;SDS011;44751;52.236;5.178;2022-12-07T10:59:41;6.32;;;1.90;;
58974;SDS011;44751;52.236;5.178;2022-12-07T11:01:55;4.93;;;1.60;;
58974;SDS011;44751;52.236;5.178;2022-12-07T11:07:58;7.30;;;1.60;;
58974;SDS011;44751;52.236;5.178;2022-12-07T11:16:24;5.07;;;1.30;;
58974;SDS011;44751;52.236;5.178;2022-12-07T11:19:03;6.22;;;1.70;;
58974;SDS011;44751;52.236;5.178;2022-12-07T11:21:47;7.47;;;1.83;;
58974;SDS011;44751;52.236;5.178;2022-12-07T11:24:25;7.80;;;1.83;;
58974;SDS011;44751;52.236;5.178;2022-12-07T11:27:22;5.95;;;1.52;;
58974;SDS011;44751;52.236;5.178;2022-12-07T11:35:30;7.13;;;2.53;;
58974;SDS011;44751;52.236;5.178;2022-12-07T11:38:03;9.30;;;2.15;;
58974;SDS011;44751;52.236;5.178;2022-12-07T11:40:39;7.88;;;1.60;;
58974;SDS011;44751;52.236;5.178;2022-12-07T11:45:42;11.98;;;3.47;;
58974;SDS011;44751;52.236;5.178;2022-12-07T11:48:25;6.90;;;1.70;;
58974;SDS011;44751;52.236;5.178;2022-12-07T11:50:59;8.88;;;2.88;;
58974;SDS011;44751;52.236;5.178;2022-12-07T11:53:33;10.05;;;2.65;;
58974;SDS011;44751;52.236;5.178;2022-12-07T11:58:40;4.93;;;1.60;;
58974;SDS011;44751;52.236;5.178;2022-12-07T12:03:52;4.90;;;1.27;;
58974;SDS011;44751;52.236;5.178;2022-12-07T12:06:22;5.68;;;1.60;;
58974;SDS011;44751;52.236;5.178;2022-12-07T12:22:58;3.80;;;1.10;;
58974;SDS011;44751;52.236;5.178;2022-12-07T12:25:40;7.43;;;1.33;;
58974;SDS011;44751;52.236;5.178;2022-12-07T12:28:29;6.05;;;1.13;;
58974;SDS011;44751;52.236;5.178;2022-12-07T12:33:52;3.03;;;0.90;;
58974;SDS011;44751;52.236;5.178;2022-12-07T12:36:22;1.33;;;0.50;;
58974;SDS011;44751;52.236;5.178;2022-12-07T12:46:58;4.05;;;1.00;;
58974;SDS011;44751;52.236;5.178;2022-12-07T12:57:28;1.20;;;0.75;;
58974;SDS011;44751;52.236;5.178;2022-12-07T12:59:57;4.53;;;1.00;;
58974;SDS011;44751;52.236;5.178;2022-12-07T13:02:32;2.13;;;1.00;;
58974;SDS011;44751;52.236;5.178;2022-12-07T13:05:14;6.13;;;1.00;;
58974;SDS011;44751;52.236;5.178;2022-12-07T13:12:57;4.00;;;1.20;;
58974;SDS011;44751;52.236;5.178;2022-12-07T13:15:40;5.40;;;1.08;;
58974;SDS011;44751;52.236;5.178;2022-12-07T13:23:37;2.45;;;0.90;;
58974;SDS011;44751;52.236;5.178;2022-12-07T13:26:20;3.78;;;1.00;;
58974;SDS011;44751;52.236;5.178;2022-12-07T13:28:50;5.07;;;1.27;;
58974;SDS011;44751;52.236;5.178;2022-12-07T13:31:26;5.70;;;1.23;;
58974;SDS011;44751;52.236;5.178;2022-12-07T13:33:58;3.58;;;1.00;;
58974;SDS011;44751;52.236;5.178;2022-12-07T13:36:26;8.63;;;1.20;;
58974;SDS011;44751;52.236;5.178;2022-12-07T13:39:11;5.38;;;1.30;;
58974;SDS011;44751;52.236;5.178;2022-12-07T13:41:41;4.20;;;1.40;;
58974;SDS011;44751;52.236;5.178;2022-12-07T13:44:12;2.22;;;1.10;;
58974;SDS011;44751;52.236;5.178;2022-12-07T13:49:46;3.95;;;0.85;;
58974;SDS011;44751;52.236;5.178;2022-12-07T13:52:17;3.90;;;1.55;;
58974;SDS011;44751;52.236;5.178;2022-12-07T13:54:49;3.42;;;1.30;;
58974;SDS011;44751;52.236;5.178;2022-12-07T13:57:24;3.65;;;1.13;;
58974;SDS011;44751;52.236;5.178;2022-12-07T13:59:52;2.55;;;1.10;;
58974;SDS011;44751;52.236;5.178;2022-12-07T14:05:05;2.63;;;1.20;;
58974;SDS011;44751;52.236;5.178;2022-12-07T14:07:52;3.08;;;1.13;;
58974;SDS011;44751;52.236;5.178;2022-12-07T14:10:22;6.70;;;1.30;;
58974;SDS011;44751;52.236;5.178;2022-12-07T14:13:03;4.47;;;1.70;;
58974;SDS011;44751;52.236;5.178;2022-12-07T14:15:52;3.65;;;1.55;;
58974;SDS011;44751;52.236;5.178;2022-12-07T14:18:29;3.83;;;1.90;;
58974;SDS011;44751;52.236;5.178;2022-12-07T14:21:13;3.30;;;1.25;;
58974;SDS011;44751;52.236;5.178;2022-12-07T14:23:43;6.28;;;2.00;;
58974;SDS011;44751;52.236;5.178;2022-12-07T14:26:13;7.15;;;2.10;;
58974;SDS011;44751;52.236;5.178;2022-12-07T14:28:42;4.30;;;1.75;;
58974;SDS011;44751;52.236;5.178;2022-12-07T14:31:16;5.03;;;3.15;;
58974;SDS011;44751;52.236;5.178;2022-12-07T14:33:44;5.13;;;2.40;;
58974;SDS011;44751;52.236;5.178;2022-12-07T14:36:12;3.05;;;1.63;;
58974;SDS011;44751;52.236;5.178;2022-12-07T14:38:39;3.95;;;1.77;;
58974;SDS011;44751;52.236;5.178;2022-12-07T14:41:16;4.00;;;1.30;;
58974;SDS011;44751;52.236;5.178;2022-12-07T14:44:12;3.45;;;0.85;;
58974;SDS011;44751;52.236;5.178;2022-12-07T14:46:38;3.85;;;1.10;;
58974;SDS011;44751;52.236;5.178;2022-12-07T14:49:05;2.50;;;1.00;;
58974;SDS011;44751;52.236;5.178;2022-12-07T14:51:37;2.10;;;0.90;;
58974;SDS011;44751;52.236;5.178;2022-12-07T14:54:06;2.53;;;0.90;;
58974;SDS011;44751;52.236;5.178;2022-12-07T14:56:40;3.53;;;0.82;;
58974;SDS011;44751;52.236;5.178;2022-12-07T14:59:07;3.80;;;1.17;;
58974;SDS011;44751;52.236;5.178;2022-12-07T15:01:33;3.00;;;1.15;;
58974;SDS011;44751;52.236;5.178;2022-12-07T15:03:59;4.13;;;1.50;;
58974;SDS011;44751;52.236;5.178;2022-12-07T15:06:26;6.32;;;1.80;;
58974;SDS011;44751;52.236;5.178;2022-12-07T15:08:52;4.35;;;1.83;;
58974;SDS011;44751;52.236;5.178;2022-12-07T15:11:20;2.65;;;1.60;;
58974;SDS011;44751;52.236;5.178;2022-12-07T15:13:46;6.25;;;1.92;;
58974;SDS011;44751;52.236;5.178;2022-12-07T15:18:56;3.60;;;1.40;;
58974;SDS011;44751;52.236;5.178;2022-12-07T15:21:22;1.75;;;1.20;;
58974;SDS011;44751;52.236;5.178;2022-12-07T15:23:49;3.42;;;1.40;;
58974;SDS011;44751;52.236;5.178;2022-12-07T15:26:15;3.28;;;1.45;;
58974;SDS011;44751;52.236;5.178;2022-12-07T15:28:42;6.90;;;1.60;;
58974;SDS011;44751;52.236;5.178;2022-12-07T15:31:12;3.75;;;1.80;;
58974;SDS011;44751;52.236;5.178;2022-12-07T15:33:39;5.22;;;1.88;;
58974;SDS011;44751;52.236;5.178;2022-12-07T15:36:05;4.07;;;1.80;;
58974;SDS011;44751;52.236;5.178;2022-12-07T15:38:32;7.22;;;2.08;;
58974;SDS011;44751;52.236;5.178;2022-12-07T15:40:58;5.85;;;2.03;;
58974;SDS011;44751;52.236;5.178;2022-12-07T15:43:25;5.20;;;1.77;;
58974;SDS011;44751;52.236;5.178;2022-12-07T15:48:35;6.53;;;1.63;;
58974;SDS011;44751;52.236;5.178;2022-12-07T15:51:02;6.13;;;1.77;;
58974;SDS011;44751;52.236;5.178;2022-12-07T15:53:33;7.22;;;1.70;;
58974;SDS011;44751;52.236;5.178;2022-12-07T15:56:01;5.30;;;1.50;;
58974;SDS011;44751;52.236;5.178;2022-12-07T15:58:27;4.38;;;1.60;;
58974;SDS011;44751;52.236;5.178;2022-12-07T16:00:54;2.90;;;1.20;;
58974;SDS011;44751;52.236;5.178;2022-12-07T16:03:20;5.00;;;1.20;;
58974;SDS011;44751;52.236;5.178;2022-12-07T16:05:50;3.70;;;1.00;;
58974;SDS011;44751;52.236;5.178;2022-12-07T16:08:18;7.32;;;1.63;;
58974;SDS011;44751;52.236;5.178;2022-12-07T16:10:44;7.28;;;1.65;;
58974;SDS011;44751;52.236;5.178;2022-12-07T16:13:11;4.70;;;1.83;;
58974;SDS011;44751;52.236;5.178;2022-12-07T16:15:39;7.38;;;2.22;;
58974;SDS011;44751;52.236;5.178;2022-12-07T16:18:05;7.63;;;3.50;;
58974;SDS011;44751;52.236;5.178;2022-12-07T16:20:32;3.83;;;2.58;;
58974;SDS011;44751;52.236;5.178;2022-12-07T16:23:01;7.45;;;3.17;;
58974;SDS011;44751;52.236;5.178;2022-12-07T16:25:27;9.38;;;5.00;;
58974;SDS011;44751;52.236;5.178;2022-12-07T16:27:54;9.52;;;4.35;;
58974;SDS011;44751;52.236;5.178;2022-12-07T16:30:20;7.90;;;3.42;;
58974;SDS011;44751;52.236;5.178;2022-12-07T16:32:47;5.95;;;3.20;;
58974;SDS011;44751;52.236;5.178;2022-12-07T16:35:13;7.13;;;3.70;;
58974;SDS011;44751;52.236;5.178;2022-12-07T16:37:41;10.50;;;3.67;;
58974;SDS011;44751;52.236;5.178;2022-12-07T16:40:08;7.22;;;3.40;;
58974;SDS011;44751;52.236;5.178;2022-12-07T16:42:36;5.78;;;2.88;;
58974;SDS011;44751;52.236;5.178;2022-12-07T16:45:02;7.20;;;2.63;;
58974;SDS011;44751;52.236;5.178;2022-12-07T16:47:29;6.47;;;2.20;;
58974;SDS011;44751;52.236;5.178;2022-12-07T16:49:55;7.95;;;2.70;;
58974;SDS011;44751;52.236;5.178;2022-12-07T16:52:22;8.60;;;2.65;;
58974;SDS011;44751;52.236;5.178;2022-12-07T16:54:48;3.55;;;2.03;;
58974;SDS011;44751;52.236;5.178;2022-12-07T16:57:15;7.72;;;2.70;;
58974;SDS011;44751;52.236;5.178;2022-12-07T16:59:43;5.65;;;2.97;;
58974;SDS011;44751;52.236;5.178;2022-12-07T17:02:10;11.15;;;3.67;;
58974;SDS011;44751;52.236;5.178;2022-12-07T17:04:40;8.70;;;2.97;;
58974;SDS011;44751;52.236;5.178;2022-12-07T17:07:07;5.68;;;3.35;;
58974;SDS011;44751;52.236;5.178;2022-12-07T17:09:34;5.82;;;2.92;;
58974;SDS011;44751;52.236;5.178;2022-12-07T17:12:00;7.80;;;3.88;;